TFFR/PTP METAR and TAF weather

Enter ICAO airport designator
Station Type Date Time Source
TFFR METAR 2019/12/14 17:00 UTC NOAA

TFFR 141700Z AUTO 13015KT 9999 FEW019/// BKN030/// BKN038/// ///TCU 27/22 Q1014 TEMPO 1500 SHRA FEW015CB BKN018TCU


Station Type Date Time Source
TFFR Decoded METAR 2019/12/14 17:00 UTC NOAA

Le Raizet, Guadeloupe, Guadeloupe (TFFR) 16-16N 061-31W 11M
Dec 14, 2019 - 12:00 PM EST / 2019.12.14 1700 UTC
Wind: from the SE (130 degrees) at 17 MPH (15 KT):0
Visibility: greater than 7 mile(s):0
Sky conditions: mostly cloudy
Weather: Cumulonimbus clouds, towering cumulus clouds observed
Temperature: 80 F (27 C)
Dew Point: 71 F (22 C)
Relative Humidity: 74%
Pressure (altimeter): 29.94 in. Hg (1014 hPa)
ob: TFFR 141700Z AUTO 13015KT 9999 FEW019/// BKN030/// BKN038/// ///TCU 27/22 Q1014 TEMPO 1500 SHRA FEW015CB BKN018TCU
cycle: 17

Station Type Date Time Source
TFFR TAF 2019/12/14 12:49 UTC NOAA

TAF TFFR 141000Z 1412/1512 10012KT 9999 SCT025 BKN060
TEMPO 1412/1418 1500 SHRA FEW015CB BKN018TCU PROB30
TEMPO 1422/1512 4000 SHRA SCT020TCU

Example: see airport list